sensor_id;sensor_type;location;lat;lon;timestamp;P1;durP1;ratioP1;P2;durP2;ratioP2
52180;SDS011;38158;53.338;6.514;2023-11-19T00:02:08;32.85;;;14.15;;
52180;SDS011;38158;53.338;6.514;2023-11-19T00:04:37;37.13;;;14.43;;
52180;SDS011;38158;53.338;6.514;2023-11-19T00:07:06;22.77;;;10.52;;
52180;SDS011;38158;53.338;6.514;2023-11-19T00:09:35;27.27;;;10.33;;
52180;SDS011;38158;53.338;6.514;2023-11-19T00:12:20;26.40;;;11.50;;
52180;SDS011;38158;53.338;6.514;2023-11-19T00:14:45;29.17;;;9.68;;
52180;SDS011;38158;53.338;6.514;2023-11-19T00:17:11;27.58;;;9.13;;
52180;SDS011;38158;53.338;6.514;2023-11-19T00:19:37;36.88;;;10.32;;
52180;SDS011;38158;53.338;6.514;2023-11-19T00:22:03;37.55;;;9.65;;
52180;SDS011;38158;53.338;6.514;2023-11-19T00:24:29;28.02;;;8.30;;
52180;SDS011;38158;53.338;6.514;2023-11-19T00:26:55;31.95;;;7.55;;
52180;SDS011;38158;53.338;6.514;2023-11-19T00:29:21;28.48;;;6.97;;
52180;SDS011;38158;53.338;6.514;2023-11-19T00:31:47;27.95;;;6.95;;
52180;SDS011;38158;53.338;6.514;2023-11-19T00:34:13;26.30;;;7.55;;
52180;SDS011;38158;53.338;6.514;2023-11-19T00:36:38;28.23;;;6.20;;
52180;SDS011;38158;53.338;6.514;2023-11-19T00:39:04;22.08;;;6.00;;
52180;SDS011;38158;53.338;6.514;2023-11-19T00:41:31;31.27;;;5.73;;
52180;SDS011;38158;53.338;6.514;2023-11-19T00:43:59;19.70;;;4.90;;
52180;SDS011;38158;53.338;6.514;2023-11-19T00:46:25;31.23;;;6.00;;
52180;SDS011;38158;53.338;6.514;2023-11-19T00:48:50;27.00;;;5.78;;
52180;SDS011;38158;53.338;6.514;2023-11-19T00:51:16;24.27;;;5.07;;
52180;SDS011;38158;53.338;6.514;2023-11-19T00:53:42;17.75;;;4.80;;
52180;SDS011;38158;53.338;6.514;2023-11-19T00:56:08;21.52;;;4.57;;
52180;SDS011;38158;53.338;6.514;2023-11-19T00:58:37;19.33;;;5.30;;
52180;SDS011;38158;53.338;6.514;2023-11-19T01:01:02;30.40;;;6.93;;
52180;SDS011;38158;53.338;6.514;2023-11-19T01:03:30;18.20;;;3.92;;
52180;SDS011;38158;53.338;6.514;2023-11-19T01:05:56;20.08;;;5.10;;
52180;SDS011;38158;53.338;6.514;2023-11-19T01:08:23;31.02;;;5.57;;
52180;SDS011;38158;53.338;6.514;2023-11-19T01:10:49;26.65;;;5.57;;
52180;SDS011;38158;53.338;6.514;2023-11-19T01:13:15;23.45;;;5.57;;
52180;SDS011;38158;53.338;6.514;2023-11-19T01:15:41;26.77;;;5.18;;
52180;SDS011;38158;53.338;6.514;2023-11-19T01:18:06;28.02;;;5.20;;
52180;SDS011;38158;53.338;6.514;2023-11-19T01:20:34;34.58;;;4.85;;
52180;SDS011;38158;53.338;6.514;2023-11-19T01:23:00;25.92;;;5.32;;
52180;SDS011;38158;53.338;6.514;2023-11-19T01:25:25;22.98;;;4.90;;
52180;SDS011;38158;53.338;6.514;2023-11-19T01:27:51;29.08;;;5.03;;
52180;SDS011;38158;53.338;6.514;2023-11-19T01:30:17;30.73;;;4.90;;
52180;SDS011;38158;53.338;6.514;2023-11-19T01:32:42;27.88;;;4.40;;
52180;SDS011;38158;53.338;6.514;2023-11-19T01:35:08;26.05;;;5.07;;
52180;SDS011;38158;53.338;6.514;2023-11-19T01:37:34;20.77;;;3.78;;
52180;SDS011;38158;53.338;6.514;2023-11-19T01:40:01;25.55;;;4.65;;
52180;SDS011;38158;53.338;6.514;2023-11-19T01:42:28;24.25;;;4.22;;
52180;SDS011;38158;53.338;6.514;2023-11-19T01:45:00;25.27;;;4.78;;
52180;SDS011;38158;53.338;6.514;2023-11-19T01:47:31;24.80;;;4.40;;
52180;SDS011;38158;53.338;6.514;2023-11-19T01:49:57;29.83;;;4.35;;
52180;SDS011;38158;53.338;6.514;2023-11-19T01:52:26;23.45;;;4.22;;
52180;SDS011;38158;53.338;6.514;2023-11-19T01:54:52;21.30;;;4.43;;
52180;SDS011;38158;53.338;6.514;2023-11-19T01:57:20;29.55;;;5.63;;
52180;SDS011;38158;53.338;6.514;2023-11-19T01:59:48;25.13;;;4.90;;
52180;SDS011;38158;53.338;6.514;2023-11-19T02:02:16;29.50;;;4.75;;
52180;SDS011;38158;53.338;6.514;2023-11-19T02:04:46;25.48;;;4.70;;
52180;SDS011;38158;53.338;6.514;2023-11-19T02:07:16;28.75;;;5.15;;
52180;SDS011;38158;53.338;6.514;2023-11-19T02:09:42;32.43;;;4.93;;
52180;SDS011;38158;53.338;6.514;2023-11-19T02:12:09;21.00;;;3.90;;
52180;SDS011;38158;53.338;6.514;2023-11-19T02:14:37;25.33;;;4.50;;
52180;SDS011;38158;53.338;6.514;2023-11-19T02:17:03;34.53;;;6.03;;
52180;SDS011;38158;53.338;6.514;2023-11-19T02:19:29;27.93;;;5.30;;
52180;SDS011;38158;53.338;6.514;2023-11-19T02:21:55;29.73;;;4.88;;
52180;SDS011;38158;53.338;6.514;2023-11-19T02:24:21;22.60;;;4.68;;
52180;SDS011;38158;53.338;6.514;2023-11-19T02:27:05;23.05;;;3.97;;
52180;SDS011;38158;53.338;6.514;2023-11-19T02:29:40;19.40;;;3.78;;
52180;SDS011;38158;53.338;6.514;2023-11-19T02:32:06;22.65;;;4.75;;
52180;SDS011;38158;53.338;6.514;2023-11-19T02:34:34;27.02;;;5.15;;
52180;SDS011;38158;53.338;6.514;2023-11-19T02:37:00;31.83;;;4.63;;
52180;SDS011;38158;53.338;6.514;2023-11-19T02:39:26;19.88;;;3.55;;
52180;SDS011;38158;53.338;6.514;2023-11-19T02:41:52;25.55;;;4.55;;
52180;SDS011;38158;53.338;6.514;2023-11-19T02:44:18;31.35;;;5.30;;
52180;SDS011;38158;53.338;6.514;2023-11-19T02:46:44;23.50;;;4.88;;
52180;SDS011;38158;53.338;6.514;2023-11-19T02:49:09;36.15;;;5.93;;
52180;SDS011;38158;53.338;6.514;2023-11-19T02:51:35;25.42;;;5.00;;
52180;SDS011;38158;53.338;6.514;2023-11-19T02:54:01;31.60;;;5.05;;
52180;SDS011;38158;53.338;6.514;2023-11-19T02:56:28;28.13;;;5.65;;
52180;SDS011;38158;53.338;6.514;2023-11-19T02:58:59;22.75;;;4.10;;
52180;SDS011;38158;53.338;6.514;2023-11-19T03:01:33;27.38;;;4.80;;
52180;SDS011;38158;53.338;6.514;2023-11-19T03:04:01;25.95;;;5.35;;
52180;SDS011;38158;53.338;6.514;2023-11-19T03:06:27;31.40;;;6.13;;
52180;SDS011;38158;53.338;6.514;2023-11-19T03:08:54;30.97;;;5.20;;
52180;SDS011;38158;53.338;6.514;2023-11-19T03:11:20;30.50;;;5.13;;
52180;SDS011;38158;53.338;6.514;2023-11-19T03:13:46;21.00;;;4.32;;
52180;SDS011;38158;53.338;6.514;2023-11-19T03:16:12;27.38;;;4.72;;
52180;SDS011;38158;53.338;6.514;2023-11-19T03:18:38;30.67;;;5.90;;
52180;SDS011;38158;53.338;6.514;2023-11-19T03:21:07;32.10;;;6.00;;
52180;SDS011;38158;53.338;6.514;2023-11-19T03:23:33;32.33;;;5.70;;
52180;SDS011;38158;53.338;6.514;2023-11-19T03:26:00;26.48;;;4.85;;
52180;SDS011;38158;53.338;6.514;2023-11-19T03:28:28;36.88;;;5.82;;
52180;SDS011;38158;53.338;6.514;2023-11-19T03:30:54;22.48;;;4.97;;
52180;SDS011;38158;53.338;6.514;2023-11-19T03:33:20;35.13;;;5.47;;
52180;SDS011;38158;53.338;6.514;2023-11-19T03:35:46;31.17;;;5.65;;
52180;SDS011;38158;53.338;6.514;2023-11-19T03:38:11;28.77;;;5.13;;
52180;SDS011;38158;53.338;6.514;2023-11-19T03:40:38;35.08;;;5.38;;
52180;SDS011;38158;53.338;6.514;2023-11-19T03:43:04;28.15;;;4.93;;
52180;SDS011;38158;53.338;6.514;2023-11-19T03:45:30;38.55;;;5.28;;
52180;SDS011;38158;53.338;6.514;2023-11-19T03:47:56;33.92;;;5.68;;
52180;SDS011;38158;53.338;6.514;2023-11-19T03:50:21;27.65;;;4.68;;
52180;SDS011;38158;53.338;6.514;2023-11-19T03:52:47;25.38;;;4.55;;
52180;SDS011;38158;53.338;6.514;2023-11-19T03:55:13;27.85;;;4.45;;
52180;SDS011;38158;53.338;6.514;2023-11-19T03:57:39;27.20;;;5.38;;
52180;SDS011;38158;53.338;6.514;2023-11-19T04:00:05;34.17;;;6.65;;
52180;SDS011;38158;53.338;6.514;2023-11-19T04:02:39;28.23;;;6.57;;
52180;SDS011;38158;53.338;6.514;2023-11-19T04:05:05;30.92;;;4.22;;
52180;SDS011;38158;53.338;6.514;2023-11-19T04:07:32;30.20;;;6.43;;
52180;SDS011;38158;53.338;6.514;2023-11-19T04:09:57;34.80;;;5.82;;
52180;SDS011;38158;53.338;6.514;2023-11-19T04:12:23;33.15;;;6.20;;
52180;SDS011;38158;53.338;6.514;2023-11-19T04:14:49;26.77;;;4.80;;
52180;SDS011;38158;53.338;6.514;2023-11-19T04:17:15;38.72;;;6.40;;
52180;SDS011;38158;53.338;6.514;2023-11-19T04:19:41;26.05;;;4.70;;
52180;SDS011;38158;53.338;6.514;2023-11-19T04:22:10;33.22;;;6.00;;
52180;SDS011;38158;53.338;6.514;2023-11-19T04:24:36;34.05;;;6.20;;
52180;SDS011;38158;53.338;6.514;2023-11-19T04:27:02;32.90;;;7.05;;
52180;SDS011;38158;53.338;6.514;2023-11-19T04:29:29;29.92;;;4.90;;
52180;SDS011;38158;53.338;6.514;2023-11-19T04:31:56;36.75;;;6.35;;
52180;SDS011;38158;53.338;6.514;2023-11-19T04:34:21;30.08;;;5.38;;
52180;SDS011;38158;53.338;6.514;2023-11-19T04:36:47;24.55;;;4.88;;
52180;SDS011;38158;53.338;6.514;2023-11-19T04:39:13;30.67;;;5.03;;
52180;SDS011;38158;53.338;6.514;2023-11-19T04:41:46;35.70;;;6.05;;
52180;SDS011;38158;53.338;6.514;2023-11-19T04:44:13;32.50;;;4.95;;
52180;SDS011;38158;53.338;6.514;2023-11-19T04:46:39;36.15;;;6.13;;
52180;SDS011;38158;53.338;6.514;2023-11-19T04:49:04;29.92;;;5.63;;
52180;SDS011;38158;53.338;6.514;2023-11-19T04:51:30;31.30;;;5.53;;
52180;SDS011;38158;53.338;6.514;2023-11-19T04:53:56;32.45;;;6.57;;
52180;SDS011;38158;53.338;6.514;2023-11-19T04:56:21;34.42;;;6.78;;
52180;SDS011;38158;53.338;6.514;2023-11-19T04:58:48;24.60;;;4.75;;
52180;SDS011;38158;53.338;6.514;2023-11-19T05:01:14;25.63;;;4.43;;
52180;SDS011;38158;53.338;6.514;2023-11-19T05:03:43;36.33;;;5.90;;
52180;SDS011;38158;53.338;6.514;2023-11-19T05:06:09;28.17;;;5.82;;
52180;SDS011;38158;53.338;6.514;2023-11-19T05:08:35;37.33;;;7.07;;
52180;SDS011;38158;53.338;6.514;2023-11-19T05:11:01;32.35;;;6.38;;
52180;SDS011;38158;53.338;6.514;2023-11-19T05:13:26;29.40;;;5.30;;
52180;SDS011;38158;53.338;6.514;2023-11-19T05:15:52;35.95;;;7.25;;
52180;SDS011;38158;53.338;6.514;2023-11-19T05:18:17;37.92;;;7.20;;
52180;SDS011;38158;53.338;6.514;2023-11-19T05:20:44;37.85;;;6.15;;
52180;SDS011;38158;53.338;6.514;2023-11-19T05:23:10;30.08;;;5.38;;
52180;SDS011;38158;53.338;6.514;2023-11-19T05:25:36;29.95;;;5.88;;
52180;SDS011;38158;53.338;6.514;2023-11-19T05:28:02;43.03;;;7.07;;
52180;SDS011;38158;53.338;6.514;2023-11-19T05:30:28;35.25;;;5.68;;
52180;SDS011;38158;53.338;6.514;2023-11-19T05:32:53;23.27;;;4.82;;
52180;SDS011;38158;53.338;6.514;2023-11-19T05:35:19;26.35;;;5.72;;
52180;SDS011;38158;53.338;6.514;2023-11-19T05:37:45;30.15;;;5.22;;
52180;SDS011;38158;53.338;6.514;2023-11-19T05:40:10;41.90;;;6.45;;
52180;SDS011;38158;53.338;6.514;2023-11-19T05:42:42;25.92;;;4.40;;
52180;SDS011;38158;53.338;6.514;2023-11-19T05:45:10;32.08;;;6.30;;
52180;SDS011;38158;53.338;6.514;2023-11-19T05:47:38;36.95;;;5.85;;
52180;SDS011;38158;53.338;6.514;2023-11-19T05:50:03;28.75;;;5.50;;
52180;SDS011;38158;53.338;6.514;2023-11-19T05:52:31;32.72;;;5.65;;
52180;SDS011;38158;53.338;6.514;2023-11-19T05:55:01;32.65;;;6.57;;
52180;SDS011;38158;53.338;6.514;2023-11-19T05:57:30;35.72;;;5.97;;
52180;SDS011;38158;53.338;6.514;2023-11-19T05:59:55;38.15;;;7.32;;
52180;SDS011;38158;53.338;6.514;2023-11-19T06:02:21;53.85;;;7.97;;
52180;SDS011;38158;53.338;6.514;2023-11-19T06:04:47;39.78;;;5.35;;
52180;SDS011;38158;53.338;6.514;2023-11-19T06:07:13;30.40;;;5.90;;
52180;SDS011;38158;53.338;6.514;2023-11-19T06:12:06;34.80;;;6.82;;
52180;SDS011;38158;53.338;6.514;2023-11-19T06:14:32;30.30;;;5.93;;
52180;SDS011;38158;53.338;6.514;2023-11-19T06:16:58;34.42;;;5.75;;
52180;SDS011;38158;53.338;6.514;2023-11-19T06:19:24;34.95;;;6.35;;
52180;SDS011;38158;53.338;6.514;2023-11-19T06:21:53;38.03;;;6.32;;
52180;SDS011;38158;53.338;6.514;2023-11-19T06:24:18;35.03;;;6.95;;
52180;SDS011;38158;53.338;6.514;2023-11-19T06:26:44;34.00;;;5.90;;
52180;SDS011;38158;53.338;6.514;2023-11-19T06:29:10;38.83;;;6.72;;
52180;SDS011;38158;53.338;6.514;2023-11-19T06:31:36;38.75;;;6.70;;
52180;SDS011;38158;53.338;6.514;2023-11-19T06:34:01;30.63;;;5.90;;
52180;SDS011;38158;53.338;6.514;2023-11-19T06:36:28;34.95;;;8.10;;
52180;SDS011;38158;53.338;6.514;2023-11-19T06:38:54;37.05;;;6.85;;
52180;SDS011;38158;53.338;6.514;2023-11-19T06:41:20;44.65;;;8.07;;
52180;SDS011;38158;53.338;6.514;2023-11-19T06:43:46;35.05;;;6.10;;
52180;SDS011;38158;53.338;6.514;2023-11-19T06:46:15;28.33;;;6.28;;
52180;SDS011;38158;53.338;6.514;2023-11-19T06:48:41;35.88;;;6.93;;
52180;SDS011;38158;53.338;6.514;2023-11-19T06:51:09;40.78;;;7.35;;
52180;SDS011;38158;53.338;6.514;2023-11-19T06:53:35;32.30;;;6.20;;
52180;SDS011;38158;53.338;6.514;2023-11-19T06:56:01;37.15;;;7.00;;
52180;SDS011;38158;53.338;6.514;2023-11-19T06:58:31;34.97;;;6.65;;
52180;SDS011;38158;53.338;6.514;2023-11-19T07:00:57;37.45;;;6.70;;
52180;SDS011;38158;53.338;6.514;2023-11-19T07:03:23;29.17;;;5.82;;
52180;SDS011;38158;53.338;6.514;2023-11-19T07:05:49;33.20;;;5.60;;
52180;SDS011;38158;53.338;6.514;2023-11-19T07:08:15;34.45;;;6.05;;
52180;SDS011;38158;53.338;6.514;2023-11-19T07:10:40;40.80;;;7.00;;
52180;SDS011;38158;53.338;6.514;2023-11-19T07:13:06;36.80;;;5.85;;
52180;SDS011;38158;53.338;6.514;2023-11-19T07:15:32;35.90;;;7.32;;
52180;SDS011;38158;53.338;6.514;2023-11-19T07:17:58;32.42;;;7.40;;
52180;SDS011;38158;53.338;6.514;2023-11-19T07:20:24;33.22;;;7.13;;
52180;SDS011;38158;53.338;6.514;2023-11-19T07:25:17;43.70;;;7.80;;
52180;SDS011;38158;53.338;6.514;2023-11-19T07:27:43;26.45;;;5.10;;
52180;SDS011;38158;53.338;6.514;2023-11-19T07:30:09;35.30;;;5.60;;
52180;SDS011;38158;53.338;6.514;2023-11-19T07:32:34;38.72;;;6.43;;
52180;SDS011;38158;53.338;6.514;2023-11-19T07:35:00;35.28;;;6.97;;
52180;SDS011;38158;53.338;6.514;2023-11-19T07:37:26;44.70;;;6.85;;
52180;SDS011;38158;53.338;6.514;2023-11-19T07:39:51;38.45;;;6.88;;
52180;SDS011;38158;53.338;6.514;2023-11-19T07:42:17;27.77;;;6.07;;
52180;SDS011;38158;53.338;6.514;2023-11-19T07:44:43;31.45;;;6.10;;
52180;SDS011;38158;53.338;6.514;2023-11-19T07:47:09;36.92;;;6.82;;
52180;SDS011;38158;53.338;6.514;2023-11-19T07:49:35;37.15;;;6.53;;
52180;SDS011;38158;53.338;6.514;2023-11-19T07:52:01;35.20;;;6.78;;
52180;SDS011;38158;53.338;6.514;2023-11-19T07:54:28;36.58;;;7.05;;
52180;SDS011;38158;53.338;6.514;2023-11-19T07:56:57;39.10;;;7.05;;
52180;SDS011;38158;53.338;6.514;2023-11-19T07:59:22;33.67;;;6.60;;
52180;SDS011;38158;53.338;6.514;2023-11-19T08:01:48;29.33;;;6.10;;
52180;SDS011;38158;53.338;6.514;2023-11-19T08:04:13;32.08;;;4.85;;
52180;SDS011;38158;53.338;6.514;2023-11-19T08:06:39;28.38;;;5.65;;
52180;SDS011;38158;53.338;6.514;2023-11-19T08:09:05;30.25;;;4.85;;
52180;SDS011;38158;53.338;6.514;2023-11-19T08:11:32;33.70;;;6.15;;
52180;SDS011;38158;53.338;6.514;2023-11-19T08:13:58;34.28;;;5.35;;
52180;SDS011;38158;53.338;6.514;2023-11-19T08:16:24;31.30;;;5.60;;
52180;SDS011;38158;53.338;6.514;2023-11-19T08:18:50;29.17;;;5.32;;
52180;SDS011;38158;53.338;6.514;2023-11-19T08:21:15;23.83;;;4.72;;
52180;SDS011;38158;53.338;6.514;2023-11-19T08:23:41;38.85;;;7.07;;
52180;SDS011;38158;53.338;6.514;2023-11-19T08:26:07;35.45;;;6.22;;
52180;SDS011;38158;53.338;6.514;2023-11-19T08:28:33;31.40;;;6.07;;
52180;SDS011;38158;53.338;6.514;2023-11-19T08:30:59;34.60;;;5.80;;
52180;SDS011;38158;53.338;6.514;2023-11-19T08:33:26;27.35;;;6.30;;
52180;SDS011;38158;53.338;6.514;2023-11-19T08:35:52;35.30;;;6.45;;
52180;SDS011;38158;53.338;6.514;2023-11-19T08:38:18;40.22;;;7.00;;
52180;SDS011;38158;53.338;6.514;2023-11-19T08:40:43;28.88;;;5.70;;
52180;SDS011;38158;53.338;6.514;2023-11-19T08:43:09;36.90;;;5.80;;
52180;SDS011;38158;53.338;6.514;2023-11-19T08:45:35;36.55;;;7.13;;
52180;SDS011;38158;53.338;6.514;2023-11-19T08:48:01;34.70;;;6.05;;
52180;SDS011;38158;53.338;6.514;2023-11-19T08:50:27;35.88;;;6.07;;
52180;SDS011;38158;53.338;6.514;2023-11-19T08:52:52;29.33;;;5.63;;
52180;SDS011;38158;53.338;6.514;2023-11-19T08:55:18;26.95;;;4.97;;
52180;SDS011;38158;53.338;6.514;2023-11-19T08:57:44;36.20;;;6.70;;
52180;SDS011;38158;53.338;6.514;2023-11-19T09:00:10;39.22;;;7.43;;
52180;SDS011;38158;53.338;6.514;2023-11-19T09:02:39;35.20;;;5.68;;
52180;SDS011;38158;53.338;6.514;2023-11-19T09:05:05;24.98;;;5.65;;
52180;SDS011;38158;53.338;6.514;2023-11-19T09:07:34;27.25;;;5.65;;
52180;SDS011;38158;53.338;6.514;2023-11-19T09:12:27;36.22;;;6.90;;
52180;SDS011;38158;53.338;6.514;2023-11-19T09:14:53;37.67;;;6.13;;
52180;SDS011;38158;53.338;6.514;2023-11-19T09:17:19;28.77;;;6.20;;
52180;SDS011;38158;53.338;6.514;2023-11-19T09:19:44;37.42;;;7.18;;
52180;SDS011;38158;53.338;6.514;2023-11-19T09:22:10;28.40;;;6.07;;
52180;SDS011;38158;53.338;6.514;2023-11-19T09:24:36;35.63;;;5.35;;
52180;SDS011;38158;53.338;6.514;2023-11-19T09:27:02;33.53;;;5.93;;
52180;SDS011;38158;53.338;6.514;2023-11-19T09:29:27;38.00;;;6.95;;
52180;SDS011;38158;53.338;6.514;2023-11-19T09:31:56;30.05;;;6.20;;
52180;SDS011;38158;53.338;6.514;2023-11-19T09:34:22;32.05;;;6.25;;
52180;SDS011;38158;53.338;6.514;2023-11-19T09:36:47;31.77;;;5.72;;
52180;SDS011;38158;53.338;6.514;2023-11-19T09:39:13;27.00;;;4.75;;
52180;SDS011;38158;53.338;6.514;2023-11-19T09:41:43;31.83;;;7.05;;
52180;SDS011;38158;53.338;6.514;2023-11-19T09:46:37;34.65;;;6.55;;
52180;SDS011;38158;53.338;6.514;2023-11-19T09:49:05;29.05;;;5.85;;
52180;SDS011;38158;53.338;6.514;2023-11-19T09:51:34;28.48;;;5.13;;
52180;SDS011;38158;53.338;6.514;2023-11-19T09:54:00;32.13;;;5.47;;
52180;SDS011;38158;53.338;6.514;2023-11-19T09:56:27;29.02;;;5.60;;
52180;SDS011;38158;53.338;6.514;2023-11-19T09:58:54;26.92;;;4.63;;
52180;SDS011;38158;53.338;6.514;2023-11-19T10:01:20;31.73;;;6.35;;
52180;SDS011;38158;53.338;6.514;2023-11-19T10:03:47;35.42;;;5.97;;
52180;SDS011;38158;53.338;6.514;2023-11-19T10:06:13;26.77;;;6.15;;
52180;SDS011;38158;53.338;6.514;2023-11-19T10:08:43;32.25;;;6.22;;
52180;SDS011;38158;53.338;6.514;2023-11-19T10:11:09;33.03;;;5.72;;
52180;SDS011;38158;53.338;6.514;2023-11-19T10:13:38;26.98;;;4.80;;
52180;SDS011;38158;53.338;6.514;2023-11-19T10:16:13;34.65;;;5.65;;
52180;SDS011;38158;53.338;6.514;2023-11-19T10:18:48;33.60;;;5.78;;
52180;SDS011;38158;53.338;6.514;2023-11-19T10:21:17;31.88;;;6.35;;
52180;SDS011;38158;53.338;6.514;2023-11-19T10:23:47;27.67;;;5.35;;
52180;SDS011;38158;53.338;6.514;2023-11-19T10:26:17;37.72;;;7.25;;
52180;SDS011;38158;53.338;6.514;2023-11-19T10:28:45;33.60;;;5.65;;
52180;SDS011;38158;53.338;6.514;2023-11-19T10:31:15;26.38;;;5.68;;
52180;SDS011;38158;53.338;6.514;2023-11-19T10:33:42;33.30;;;5.90;;
52180;SDS011;38158;53.338;6.514;2023-11-19T10:36:10;36.03;;;6.30;;
52180;SDS011;38158;53.338;6.514;2023-11-19T10:41:03;26.52;;;5.80;;
52180;SDS011;38158;53.338;6.514;2023-11-19T10:43:30;30.98;;;5.35;;
52180;SDS011;38158;53.338;6.514;2023-11-19T10:46:12;29.95;;;5.50;;
52180;SDS011;38158;53.338;6.514;2023-11-19T10:48:39;25.15;;;5.32;;
52180;SDS011;38158;53.338;6.514;2023-11-19T10:51:06;30.98;;;5.60;;
52180;SDS011;38158;53.338;6.514;2023-11-19T10:56:04;23.25;;;4.78;;
52180;SDS011;38158;53.338;6.514;2023-11-19T10:58:35;25.00;;;4.45;;
52180;SDS011;38158;53.338;6.514;2023-11-19T11:01:07;27.67;;;5.70;;
52180;SDS011;38158;53.338;6.514;2023-11-19T11:03:56;31.38;;;6.05;;
52180;SDS011;38158;53.338;6.514;2023-11-19T11:06:26;29.38;;;5.43;;
52180;SDS011;38158;53.338;6.514;2023-11-19T11:08:52;30.52;;;6.50;;
52180;SDS011;38158;53.338;6.514;2023-11-19T11:11:20;31.73;;;6.82;;
52180;SDS011;38158;53.338;6.514;2023-11-19T11:13:47;27.58;;;6.35;;
52180;SDS011;38158;53.338;6.514;2023-11-19T11:16:17;29.83;;;5.00;;
52180;SDS011;38158;53.338;6.514;2023-11-19T11:18:45;27.30;;;5.20;;
52180;SDS011;38158;53.338;6.514;2023-11-19T11:21:15;26.45;;;6.28;;
52180;SDS011;38158;53.338;6.514;2023-11-19T11:24:26;30.48;;;5.43;;
52180;SDS011;38158;53.338;6.514;2023-11-19T11:32:57;32.03;;;5.53;;
52180;SDS011;38158;53.338;6.514;2023-11-19T11:38:44;33.30;;;6.10;;
52180;SDS011;38158;53.338;6.514;2023-11-19T11:41:20;22.50;;;4.47;;
52180;SDS011;38158;53.338;6.514;2023-11-19T11:43:54;26.60;;;4.93;;
52180;SDS011;38158;53.338;6.514;2023-11-19T11:49:01;28.92;;;5.55;;
52180;SDS011;38158;53.338;6.514;2023-11-19T11:54:11;27.30;;;5.13;;
52180;SDS011;38158;53.338;6.514;2023-11-19T11:57:04;21.38;;;5.07;;
52180;SDS011;38158;53.338;6.514;2023-11-19T11:59:36;21.73;;;4.35;;
52180;SDS011;38158;53.338;6.514;2023-11-19T12:02:05;25.60;;;6.88;;
52180;SDS011;38158;53.338;6.514;2023-11-19T12:04:34;26.05;;;5.13;;
52180;SDS011;38158;53.338;6.514;2023-11-19T12:07:06;28.02;;;5.82;;
52180;SDS011;38158;53.338;6.514;2023-11-19T12:09:42;28.60;;;5.10;;
52180;SDS011;38158;53.338;6.514;2023-11-19T12:12:22;30.23;;;6.18;;
52180;SDS011;38158;53.338;6.514;2023-11-19T12:15:04;29.98;;;6.18;;
52180;SDS011;38158;53.338;6.514;2023-11-19T12:20:08;28.92;;;4.72;;
52180;SDS011;38158;53.338;6.514;2023-11-19T12:22:35;29.13;;;5.18;;
52180;SDS011;38158;53.338;6.514;2023-11-19T12:25:08;28.20;;;4.88;;
52180;SDS011;38158;53.338;6.514;2023-11-19T12:27:44;28.65;;;5.30;;
52180;SDS011;38158;53.338;6.514;2023-11-19T12:30:11;23.10;;;4.93;;
52180;SDS011;38158;53.338;6.514;2023-11-19T12:32:41;28.45;;;6.07;;
52180;SDS011;38158;53.338;6.514;2023-11-19T12:35:07;26.88;;;5.35;;
52180;SDS011;38158;53.338;6.514;2023-11-19T12:37:40;25.17;;;5.00;;
52180;SDS011;38158;53.338;6.514;2023-11-19T12:40:19;22.73;;;4.53;;
52180;SDS011;38158;53.338;6.514;2023-11-19T12:42:46;23.30;;;4.60;;
52180;SDS011;38158;53.338;6.514;2023-11-19T12:45:18;19.73;;;5.20;;
52180;SDS011;38158;53.338;6.514;2023-11-19T12:47:46;29.33;;;5.70;;
52180;SDS011;38158;53.338;6.514;2023-11-19T12:50:13;28.80;;;4.38;;
52180;SDS011;38158;53.338;6.514;2023-11-19T12:52:39;30.40;;;4.63;;
52180;SDS011;38158;53.338;6.514;2023-11-19T12:55:05;28.45;;;5.00;;
52180;SDS011;38158;53.338;6.514;2023-11-19T12:57:52;30.05;;;6.03;;
52180;SDS011;38158;53.338;6.514;2023-11-19T13:00:20;24.58;;;4.55;;
52180;SDS011;38158;53.338;6.514;2023-11-19T13:02:54;27.38;;;5.53;;
52180;SDS011;38158;53.338;6.514;2023-11-19T13:05:28;27.10;;;5.07;;
52180;SDS011;38158;53.338;6.514;2023-11-19T13:08:02;31.30;;;5.32;;
52180;SDS011;38158;53.338;6.514;2023-11-19T13:10:54;35.72;;;6.18;;
52180;SDS011;38158;53.338;6.514;2023-11-19T13:13:19;28.35;;;5.10;;
52180;SDS011;38158;53.338;6.514;2023-11-19T13:15:45;24.05;;;4.75;;
52180;SDS011;38158;53.338;6.514;2023-11-19T13:18:11;26.47;;;5.43;;
52180;SDS011;38158;53.338;6.514;2023-11-19T13:20:38;31.73;;;6.32;;
52180;SDS011;38158;53.338;6.514;2023-11-19T13:23:05;29.95;;;4.85;;
52180;SDS011;38158;53.338;6.514;2023-11-19T13:25:32;28.25;;;6.22;;
52180;SDS011;38158;53.338;6.514;2023-11-19T13:27:58;21.27;;;4.53;;
52180;SDS011;38158;53.338;6.514;2023-11-19T13:30:24;39.23;;;5.23;;
52180;SDS011;38158;53.338;6.514;2023-11-19T13:32:51;26.95;;;4.75;;
52180;SDS011;38158;53.338;6.514;2023-11-19T13:35:17;24.40;;;4.30;;
52180;SDS011;38158;53.338;6.514;2023-11-19T13:37:44;28.90;;;6.80;;
52180;SDS011;38158;53.338;6.514;2023-11-19T13:40:10;29.17;;;5.25;;
52180;SDS011;38158;53.338;6.514;2023-11-19T13:42:39;32.40;;;4.85;;
52180;SDS011;38158;53.338;6.514;2023-11-19T13:45:09;31.48;;;4.90;;
52180;SDS011;38158;53.338;6.514;2023-11-19T13:47:39;29.80;;;5.30;;
52180;SDS011;38158;53.338;6.514;2023-11-19T13:50:12;23.77;;;4.75;;
52180;SDS011;38158;53.338;6.514;2023-11-19T13:52:40;19.00;;;4.13;;
52180;SDS011;38158;53.338;6.514;2023-11-19T13:55:08;24.40;;;5.53;;
52180;SDS011;38158;53.338;6.514;2023-11-19T13:57:38;27.27;;;4.47;;
52180;SDS011;38158;53.338;6.514;2023-11-19T14:00:05;36.50;;;6.03;;
52180;SDS011;38158;53.338;6.514;2023-11-19T14:02:38;32.83;;;4.80;;
52180;SDS011;38158;53.338;6.514;2023-11-19T14:05:05;22.90;;;5.22;;
52180;SDS011;38158;53.338;6.514;2023-11-19T14:07:31;35.60;;;6.03;;
52180;SDS011;38158;53.338;6.514;2023-11-19T14:09:57;24.88;;;5.85;;
52180;SDS011;38158;53.338;6.514;2023-11-19T14:12:23;30.95;;;4.75;;
52180;SDS011;38158;53.338;6.514;2023-11-19T14:14:49;22.38;;;4.45;;
52180;SDS011;38158;53.338;6.514;2023-11-19T14:17:15;25.17;;;4.38;;
52180;SDS011;38158;53.338;6.514;2023-11-19T14:19:43;28.35;;;5.05;;
52180;SDS011;38158;53.338;6.514;2023-11-19T14:22:09;21.42;;;4.15;;
52180;SDS011;38158;53.338;6.514;2023-11-19T14:24:37;20.88;;;3.83;;
52180;SDS011;38158;53.338;6.514;2023-11-19T14:27:03;21.90;;;4.40;;
52180;SDS011;38158;53.338;6.514;2023-11-19T14:29:29;25.98;;;4.70;;
52180;SDS011;38158;53.338;6.514;2023-11-19T14:31:55;21.53;;;4.03;;
52180;SDS011;38158;53.338;6.514;2023-11-19T14:34:22;28.17;;;5.93;;
52180;SDS011;38158;53.338;6.514;2023-11-19T14:36:47;27.50;;;4.28;;
52180;SDS011;38158;53.338;6.514;2023-11-19T14:39:14;22.90;;;4.25;;
52180;SDS011;38158;53.338;6.514;2023-11-19T14:41:40;22.85;;;4.35;;
52180;SDS011;38158;53.338;6.514;2023-11-19T14:44:08;31.63;;;4.72;;
52180;SDS011;38158;53.338;6.514;2023-11-19T14:46:34;24.43;;;4.67;;
52180;SDS011;38158;53.338;6.514;2023-11-19T14:49:00;24.40;;;4.63;;
52180;SDS011;38158;53.338;6.514;2023-11-19T14:51:26;25.27;;;6.00;;
52180;SDS011;38158;53.338;6.514;2023-11-19T14:53:52;32.72;;;5.72;;
52180;SDS011;38158;53.338;6.514;2023-11-19T14:56:18;33.13;;;6.22;;
52180;SDS011;38158;53.338;6.514;2023-11-19T14:58:43;27.92;;;5.35;;
52180;SDS011;38158;53.338;6.514;2023-11-19T15:01:13;26.80;;;4.43;;
52180;SDS011;38158;53.338;6.514;2023-11-19T15:03:39;25.10;;;4.53;;
52180;SDS011;38158;53.338;6.514;2023-11-19T15:06:05;25.15;;;4.93;;
52180;SDS011;38158;53.338;6.514;2023-11-19T15:08:36;27.27;;;4.78;;